Time;durP1;ratioP1;P1;durP2;ratioP2;P2;SDS_P1;SDS_P2;PMS_P1;PMS_P2;Temp;Humidity;BMP_temperature;BMP_pressure;BME280_temperature;BME280_humidity;BME280_pressure;Samples;Min_cycle;Max_cycle;Signal;HPM_P1;HPM_P2
2022/06/14 00:00:58;;;;;;;15.25;4.97;;;;;;;9.94;95.30;102269.72;5203939;28;20033;-66
2022/06/14 00:03:39;;;;;;;13.10;5.32;;;;;;;9.89;95.08;102267.28;5203355;28;20120;-66
2022/06/14 00:06:16;;;;;;;11.77;4.68;;;;;;;9.84;94.59;102264.00;5207116;28;20104;-66
2022/06/14 00:08:48;;;;;;;13.25;4.90;;;;;;;9.80;95.65;102267.78;5205909;28;20184;-66
2022/06/14 00:11:25;;;;;;;12.85;4.82;;;;;;;9.79;96.81;102261.56;5202324;28;20065;-66
2022/06/14 00:13:59;;;;;;;13.93;5.40;;;;;;;9.69;95.31;102270.13;5201985;28;20101;-66
2022/06/14 00:16:31;;;;;;;11.90;4.55;;;;;;;9.78;97.14;102265.19;5206370;28;20037;-66
2022/06/14 00:19:07;;;;;;;13.15;4.78;;;;;;;9.71;97.44;102261.09;5200465;28;20049;-66
2022/06/14 00:21:38;;;;;;;15.73;5.35;;;;;;;9.65;96.75;102249.88;5202666;28;20079;-66
2022/06/14 00:24:09;;;;;;;13.27;5.72;;;;;;;9.71;97.44;102250.44;5207641;28;20476;-66
2022/06/14 00:26:40;;;;;;;31.23;6.93;;;;;;;9.64;96.81;102265.00;5203280;28;20550;-66
2022/06/14 00:29:12;;;;;;;17.33;5.97;;;;;;;9.64;97.68;102256.16;5204020;28;20060;-66
2022/06/14 00:31:43;;;;;;;15.63;6.13;;;;;;;9.69;97.66;102256.78;5207050;28;20050;-66
2022/06/14 00:34:14;;;;;;;13.88;6.03;;;;;;;9.65;97.79;102263.22;5207022;28;20076;-67
2022/06/14 00:36:54;;;;;;;13.02;5.95;;;;;;;9.62;98.26;102261.53;5205693;28;20038;-66
2022/06/14 00:39:26;;;;;;;16.77;6.38;;;;;;;9.49;97.18;102247.09;5205459;28;20030;-66
2022/06/14 00:41:59;;;;;;;15.23;5.93;;;;;;;9.38;95.98;102245.84;5203273;28;20033;-66
2022/06/14 00:44:31;;;;;;;14.98;7.47;;;;;;;9.43;96.20;102242.94;5203627;28;20058;-66
2022/06/14 00:47:15;;;;;;;13.88;6.05;;;;;;;9.39;97.73;102244.03;5203551;28;20026;-66
2022/06/14 00:49:59;;;;;;;19.23;7.13;;;;;;;9.37;97.81;102246.75;5202823;28;20033;-67
2022/06/14 00:52:39;;;;;;;20.98;6.45;;;;;;;9.30;98.65;102239.16;5203446;28;20030;-66
2022/06/14 00:55:18;;;;;;;13.70;6.88;;;;;;;9.31;96.89;102239.06;5204083;28;20029;-66
2022/06/14 00:58:13;;;;;;;14.52;6.20;;;;;;;9.37;97.86;102238.78;5201249;28;20029;-66
2022/06/14 01:00:49;;;;;;;14.30;6.35;;;;;;;9.28;98.61;102238.38;5203358;28;20500;-66
2022/06/14 01:03:25;;;;;;;15.63;6.60;;;;;;;9.23;98.76;102239.44;5204006;28;20376;-66
2022/06/14 01:06:07;;;;;;;16.77;6.47;;;;;;;9.34;100.00;102236.28;5202451;28;20034;-66
2022/06/14 01:08:49;;;;;;;17.08;7.18;;;;;;;9.36;100.00;102236.22;5204646;28;20831;-66
2022/06/14 01:11:31;;;;;;;17.92;6.93;;;;;;;9.18;99.19;102238.81;5206738;28;20026;-66
2022/06/14 01:14:04;;;;;;;15.57;7.00;;;;;;;9.29;100.00;102234.78;5207627;28;20029;-66
2022/06/14 01:16:37;;;;;;;17.70;7.20;;;;;;;9.09;99.44;102239.28;5204752;28;20358;-66
2022/06/14 01:19:14;;;;;;;19.08;6.90;;;;;;;9.06;98.00;102235.88;5203439;28;20058;-66
2022/06/14 01:22:02;;;;;;;17.63;7.15;;;;;;;9.21;100.00;102244.00;5200692;28;20026;-66
2022/06/14 01:24:35;;;;;;;13.02;6.75;;;;;;;9.19;100.00;102245.00;5205287;28;20021;-66
2022/06/14 01:27:10;;;;;;;16.25;6.47;;;;;;;9.23;100.00;102242.13;5202484;28;20109;-66
2022/06/14 01:29:53;;;;;;;14.55;7.32;;;;;;;9.00;100.00;102237.91;5206373;28;20791;-66
2022/06/14 01:32:28;;;;;;;16.50;7.18;;;;;;;9.05;100.00;102236.81;5204719;28;20072;-67
2022/06/14 01:35:04;;;;;;;15.98;7.35;;;;;;;9.08;100.00;102234.88;5207256;28;20029;-66
2022/06/14 01:37:36;;;;;;;17.95;7.82;;;;;;;9.13;100.00;102232.00;5219105;28;20160;-66
2022/06/14 01:40:08;;;;;;;18.17;7.47;;;;;;;9.11;100.00;102228.53;5204898;28;20030;-67
2022/06/14 01:42:45;;;;;;;16.33;7.18;;;;;;;8.93;100.00;102223.13;5204802;28;20035;-67
2022/06/14 01:45:24;;;;;;;15.20;8.07;;;;;;;8.97;100.00;102231.84;5204838;28;20428;-66
2022/06/14 01:48:24;;;;;;;19.58;7.93;;;;;;;8.98;100.00;102228.25;5204174;28;20101;-66
2022/06/14 01:51:52;;;;;;;17.50;7.35;;;;;;;8.96;100.00;102227.47;5207055;28;20029;-66
2022/06/14 01:54:27;;;;;;;14.70;7.55;;;;;;;8.79;100.00;102225.59;5208013;28;20049;-66
2022/06/14 01:57:15;;;;;;;16.65;7.20;;;;;;;8.84;100.00;102223.59;5206533;28;20499;-66
2022/06/14 02:00:17;;;;;;;15.63;6.93;;;;;;;8.88;100.00;102226.94;5207534;28;20460;-66
2022/06/14 02:04:37;;;;;;;15.18;7.05;;;;;;;8.81;100.00;102224.59;5203932;28;20042;-66
2022/06/14 02:06:35;;;;;;;16.42;7.40;;;;;;;8.89;100.00;102218.03;5206502;28;20045;-67
2022/06/14 02:09:09;;;;;;;16.30;7.35;;;;;;;8.91;100.00;102216.19;5203382;28;20497;-66
2022/06/14 02:11:41;;;;;;;14.52;6.97;;;;;;;8.92;100.00;102205.47;5202469;28;20090;-66
2022/06/14 02:14:28;;;;;;;17.60;7.13;;;;;;;8.76;100.00;102210.66;5201809;28;20449;-66
2022/06/14 02:17:07;;;;;;;13.63;7.82;;;;;;;8.76;100.00;102208.00;5199877;28;20116;-66
2022/06/14 02:19:59;;;;;;;14.95;6.28;;;;;;;8.85;100.00;102209.34;5201329;28;20057;-66
2022/06/14 02:22:43;;;;;;;14.73;6.78;;;;;;;8.85;100.00;102201.34;5199394;28;20468;-66
2022/06/14 02:25:21;;;;;;;16.13;7.28;;;;;;;8.78;100.00;102198.13;5200823;28;20026;-66
2022/06/14 02:28:02;;;;;;;15.25;6.28;;;;;;;8.76;100.00;102196.47;5208123;28;21171;-66
2022/06/14 02:30:54;;;;;;;18.40;6.60;;;;;;;8.77;100.00;102199.06;5208145;28;20173;-66
2022/06/14 02:33:33;;;;;;;15.43;6.63;;;;;;;8.76;100.00;102197.34;5209405;28;20034;-66
2022/06/14 02:36:11;;;;;;;13.88;6.78;;;;;;;8.70;100.00;102200.28;5207173;28;20037;-66
2022/06/14 02:38:54;;;;;;;13.20;6.28;;;;;;;8.55;100.00;102196.56;5210449;28;20108;-66
2022/06/14 02:41:33;;;;;;;14.15;6.35;;;;;;;8.49;100.00;102198.63;5204244;28;20038;-66
2022/06/14 02:44:14;;;;;;;15.75;6.55;;;;;;;8.56;100.00;102194.75;5206857;28;20037;-66
2022/06/14 02:47:02;;;;;;;13.52;6.30;;;;;;;8.53;100.00;102184.25;5203991;28;20554;-67
2022/06/14 02:49:40;;;;;;;12.55;7.07;;;;;;;8.57;100.00;102181.38;5209279;28;20379;-66
2022/06/14 02:52:21;;;;;;;15.13;6.38;;;;;;;8.40;100.00;102182.13;5204147;28;20034;-66
2022/06/14 02:55:00;;;;;;;14.65;6.65;;;;;;;8.47;100.00;102187.19;5201707;28;20472;-66
2022/06/14 02:57:44;;;;;;;14.10;6.68;;;;;;;8.52;100.00;102186.03;5202152;28;20040;-66
2022/06/14 03:00:19;;;;;;;13.93;6.97;;;;;;;8.45;100.00;102187.25;5205601;28;20483;-66
2022/06/14 03:03:00;;;;;;;13.73;7.00;;;;;;;8.42;100.00;102180.28;5205761;28;20377;-66
2022/06/14 03:05:44;;;;;;;13.65;6.13;;;;;;;8.38;100.00;102188.44;5201827;28;20029;-66
2022/06/14 03:08:21;;;;;;;12.30;6.90;;;;;;;8.26;100.00;102192.50;5203542;28;20030;-66
2022/06/14 03:11:09;;;;;;;12.65;6.35;;;;;;;8.21;100.00;102194.53;5203680;28;20492;-66
2022/06/14 03:14:29;;;;;;;15.13;7.22;;;;;;;8.17;100.00;102192.91;5198915;28;20385;-66
2022/06/14 03:17:22;;;;;;;13.38;6.68;;;;;;;8.22;100.00;102188.25;5202843;28;20068;-66
2022/06/14 03:20:06;;;;;;;13.07;6.50;;;;;;;8.22;100.00;102196.25;5205755;28;20053;-66
2022/06/14 03:22:58;;;;;;;14.98;7.03;;;;;;;8.21;100.00;102199.84;5202011;28;20617;-66
2022/06/14 03:25:35;;;;;;;13.90;5.90;;;;;;;8.28;100.00;102187.97;5205696;28;20091;-66
2022/06/14 03:28:12;;;;;;;13.55;6.68;;;;;;;8.11;100.00;102191.44;5203462;28;20038;-66
2022/06/14 03:31:05;;;;;;;12.98;6.97;;;;;;;8.14;100.00;102193.94;5197497;28;20038;-66
2022/06/14 03:33:45;;;;;;;16.52;7.28;;;;;;;8.20;100.00;102195.44;5219375;28;20055;-65
2022/06/14 03:36:17;;;;;;;13.02;6.43;;;;;;;8.07;100.00;102196.94;5201001;28;20164;-66
2022/06/14 03:38:53;;;;;;;11.32;6.88;;;;;;;8.09;100.00;102197.72;5196633;28;20034;-66
2022/06/14 03:41:32;;;;;;;17.50;7.95;;;;;;;8.00;100.00;102194.53;5203512;28;20034;-65
2022/06/14 03:44:05;;;;;;;12.38;6.75;;;;;;;8.02;100.00;102187.38;5198899;28;20038;-66
2022/06/14 03:46:40;;;;;;;13.73;6.97;;;;;;;7.97;100.00;102185.84;5201010;28;20041;-66
2022/06/14 03:49:15;;;;;;;15.82;6.78;;;;;;;7.99;100.00;102192.81;5198239;28;20392;-66
2022/06/14 03:52:03;;;;;;;15.55;7.13;;;;;;;8.07;100.00;102189.81;5201910;28;20045;-66
2022/06/14 03:54:46;;;;;;;14.75;7.20;;;;;;;7.96;100.00;102190.31;5205771;28;20038;-66
2022/06/14 03:57:40;;;;;;;13.60;6.72;;;;;;;7.94;100.00;102189.50;5200343;28;20100;-66
2022/06/14 04:00:23;;;;;;;17.13;7.82;;;;;;;8.05;100.00;102187.25;5202921;28;20117;-65
2022/06/14 04:03:12;;;;;;;13.70;7.10;;;;;;;8.07;100.00;102192.47;5200566;28;20472;-66
2022/06/14 04:05:44;;;;;;;16.75;8.00;;;;;;;8.02;100.00;102197.16;5207728;28;20041;-65
2022/06/14 04:08:35;;;;;;;13.00;7.13;;;;;;;7.99;100.00;102198.13;5202747;28;20396;-66
2022/06/14 04:11:18;;;;;;;14.55;7.72;;;;;;;8.04;100.00;102193.47;5201697;28;20495;-65
2022/06/14 04:14:09;;;;;;;16.65;8.32;;;;;;;7.96;100.00;102198.28;5197854;28;20048;-66
2022/06/14 04:17:03;;;;;;;13.95;6.90;;;;;;;7.97;100.00;102205.31;5198622;28;20056;-65
2022/06/14 04:19:47;;;;;;;17.25;7.55;;;;;;;7.96;100.00;102210.72;5201320;28;20057;-65
2022/06/14 04:22:32;;;;;;;12.40;7.22;;;;;;;8.03;100.00;102209.47;5199355;28;20042;-66
2022/06/14 04:25:13;;;;;;;13.95;7.28;;;;;;;7.97;100.00;102200.00;5206689;28;20050;-66
2022/06/14 04:27:57;;;;;;;14.02;6.55;;;;;;;7.97;100.00;102202.66;5198143;28;20140;-66
2022/06/14 04:30:38;;;;;;;16.73;8.00;;;;;;;8.04;100.00;102212.09;5198344;28;20042;-66
2022/06/14 04:33:19;;;;;;;15.43;6.47;;;;;;;8.03;100.00;102206.81;5198038;28;20055;-65
2022/06/14 04:35:56;;;;;;;16.00;7.03;;;;;;;8.03;100.00;102207.72;5197457;28;20086;-65
2022/06/14 04:38:52;;;;;;;14.05;6.80;;;;;;;8.07;100.00;102211.06;5198824;28;20040;-65
2022/06/14 04:41:31;;;;;;;16.58;6.82;;;;;;;8.24;100.00;102202.34;5197645;28;20387;-65
2022/06/14 04:44:11;;;;;;;15.73;7.00;;;;;;;8.18;100.00;102215.94;5197207;28;20483;-66
2022/06/14 04:46:53;;;;;;;14.70;7.90;;;;;;;8.18;100.00;102213.28;5199460;28;20045;-66
2022/06/14 04:49:34;;;;;;;15.13;7.32;;;;;;;8.28;100.00;102217.22;5198396;28;20026;-65
2022/06/14 04:52:25;;;;;;;15.75;6.95;;;;;;;8.31;100.00;102218.91;5200799;28;20065;-66
2022/06/14 04:55:09;;;;;;;14.82;7.93;;;;;;;8.44;100.00;102213.00;5196077;28;20036;-66
2022/06/14 04:57:58;;;;;;;13.02;7.40;;;;;;;8.44;100.00;102214.81;5195015;28;20030;-66
2022/06/14 05:00:34;;;;;;;15.95;6.90;;;;;;;8.45;100.00;102208.53;5201336;28;20030;-66
2022/06/14 05:03:05;;;;;;;16.50;8.07;;;;;;;8.53;100.00;102206.38;5203431;28;20120;-65
2022/06/14 05:05:48;;;;;;;15.95;8.25;;;;;;;8.56;100.00;102205.38;5211009;28;20067;-65
2022/06/14 05:08:35;;;;;;;19.38;9.05;;;;;;;8.64;100.00;102209.41;5205336;28;20030;-66
2022/06/14 05:11:21;;;;;;;17.10;8.10;;;;;;;8.65;100.00;102207.63;5207854;28;20479;-66
2022/06/14 05:14:10;;;;;;;16.80;8.30;;;;;;;8.75;100.00;102214.25;5204355;28;20033;-65
2022/06/14 05:17:00;;;;;;;14.38;7.32;;;;;;;8.78;100.00;102215.88;5205699;28;20017;-65
2022/06/14 05:19:58;;;;;;;17.77;7.50;;;;;;;8.81;100.00;102221.94;5204139;28;20487;-66
2022/06/14 05:22:46;;;;;;;14.18;6.85;;;;;;;8.89;100.00;102220.72;5211950;28;20079;-65
2022/06/14 05:25:18;;;;;;;20.33;7.85;;;;;;;8.91;100.00;102217.03;5207753;28;20045;-66
2022/06/14 05:28:07;;;;;;;15.02;7.38;;;;;;;8.97;100.00;102222.06;5210576;28;20037;-65
2022/06/14 05:30:57;;;;;;;16.40;7.32;;;;;;;9.13;100.00;102216.88;5210161;28;20032;-65
2022/06/14 05:33:46;;;;;;;15.18;7.20;;;;;;;9.19;100.00;102216.56;5211373;28;20480;-65
2022/06/14 05:36:24;;;;;;;18.08;6.55;;;;;;;9.21;100.00;102220.03;5208970;28;20034;-65
2022/06/14 05:39:12;;;;;;;13.35;6.30;;;;;;;9.22;100.00;102224.44;5208058;28;20036;-65
2022/06/14 05:41:48;;;;;;;17.33;6.78;;;;;;;9.36;100.00;102223.75;5207101;28;20105;-65
2022/06/14 05:44:29;;;;;;;16.35;7.03;;;;;;;9.40;100.00;102227.13;5213517;28;20116;-66
2022/06/14 05:47:14;;;;;;;21.35;6.82;;;;;;;9.42;100.00;102225.25;5209551;28;20033;-65
2022/06/14 05:49:52;;;;;;;14.30;6.47;;;;;;;9.61;100.00;102222.53;5209780;28;20034;-65
2022/06/14 05:52:40;;;;;;;10.30;5.38;;;;;;;9.65;100.00;102226.75;5211969;28;20030;-65
2022/06/14 05:55:17;;;;;;;14.10;5.80;;;;;;;9.77;100.00;102227.94;5214028;28;20025;-65
2022/06/14 05:57:55;;;;;;;14.52;6.25;;;;;;;9.95;100.00;102221.66;5207932;28;20113;-65
2022/06/14 06:00:43;;;;;;;14.70;5.90;;;;;;;10.05;100.00;102221.16;5208209;28;20025;-65
2022/06/14 06:03:29;;;;;;;15.68;6.50;;;;;;;10.05;100.00;102224.72;5209057;28;20030;-66
2022/06/14 06:06:03;;;;;;;14.27;5.70;;;;;;;10.10;100.00;102227.97;5210078;28;20076;-65
2022/06/14 06:08:48;;;;;;;17.05;5.50;;;;;;;10.26;100.00;102233.41;5210301;28;20406;-65
2022/06/14 06:11:25;;;;;;;13.38;5.13;;;;;;;10.39;100.00;102234.50;5210269;28;20121;-65
2022/06/14 06:14:16;;;;;;;17.45;5.18;;;;;;;10.53;100.00;102233.75;5212641;28;20029;-65
2022/06/14 06:17:01;;;;;;;9.93;4.88;;;;;;;10.58;100.00;102231.72;5209005;28;20548;-65
2022/06/14 06:19:43;;;;;;;13.02;5.20;;;;;;;10.79;100.00;102242.13;5213837;28;20052;-65
2022/06/14 06:22:20;;;;;;;16.45;5.55;;;;;;;10.96;99.25;102234.03;5212203;28;20049;-66
2022/06/14 06:25:14;;;;;;;11.70;4.93;;;;;;;11.09;98.61;102242.25;5212965;28;20057;-65
2022/06/14 06:27:52;;;;;;;11.67;5.40;;;;;;;11.31;96.39;102233.00;5213861;28;20030;-65
2022/06/14 06:30:29;;;;;;;13.10;4.88;;;;;;;11.37;96.59;102233.53;5215103;28;20037;-65
2022/06/14 06:33:01;;;;;;;10.55;5.25;;;;;;;11.51;94.69;102235.41;5212857;28;20038;-65
2022/06/14 06:35:45;;;;;;;13.60;5.38;;;;;;;11.57;95.31;102236.84;5211300;28;20040;-65
2022/06/14 06:38:35;;;;;;;11.03;4.80;;;;;;;11.71;95.15;102236.03;5213781;28;20038;-65
2022/06/14 06:44:11;;;;;;;17.40;5.88;;;;;;;12.02;94.30;102242.25;5212507;28;20049;-65
2022/06/14 06:46:48;;;;;;;9.18;3.80;;;;;;;12.05;88.24;102244.75;5212522;28;20049;-66
2022/06/14 06:49:29;;;;;;;10.70;4.25;;;;;;;12.25;90.78;102251.56;5217739;28;20114;-65
2022/06/14 06:52:05;;;;;;;10.73;4.22;;;;;;;12.47;88.89;102243.09;5214743;28;20517;-65
2022/06/14 06:54:45;;;;;;;11.52;4.53;;;;;;;12.53;85.88;102240.88;5209052;28;20025;-65
2022/06/14 06:57:21;;;;;;;8.05;3.72;;;;;;;12.61;84.04;102248.44;5215119;28;20040;-66
2022/06/14 06:59:55;;;;;;;9.57;3.83;;;;;;;12.65;85.27;102241.06;5214676;28;20022;-66
2022/06/14 07:02:47;;;;;;;10.47;4.37;;;;;;;12.78;83.61;102238.47;5215049;28;20384;-66
2022/06/14 07:05:18;;;;;;;8.85;3.25;;;;;;;13.01;75.46;102242.38;5213574;28;20292;-66
2022/06/14 07:07:59;;;;;;;7.30;3.30;;;;;;;13.05;78.21;102239.38;5213949;28;20382;-66
2022/06/14 07:10:43;;;;;;;9.13;3.67;;;;;;;13.23;76.66;102245.38;5210150;28;20033;-66
2022/06/14 07:13:27;;;;;;;6.80;3.22;;;;;;;13.27;77.59;102240.66;5209293;28;20052;-66
2022/06/14 07:16:16;;;;;;;6.28;2.90;;;;;;;13.43;75.03;102244.09;5209628;28;20029;-66
2022/06/14 07:19:07;;;;;;;7.53;2.85;;;;;;;13.52;71.72;102243.47;5211736;28;20096;-66
2022/06/14 07:21:44;;;;;;;9.13;2.90;;;;;;;13.56;70.63;102245.94;5210393;28;20026;-66
2022/06/14 07:24:25;;;;;;;5.93;2.50;;;;;;;13.71;70.67;102244.91;5214573;28;20439;-66
2022/06/14 07:27:17;;;;;;;10.05;3.20;;;;;;;13.85;72.60;102244.84;5216711;28;20050;-66
2022/06/14 07:30:01;;;;;;;7.07;2.50;;;;;;;13.97;69.13;102242.28;5213040;28;20034;-66
2022/06/14 07:32:38;;;;;;;6.95;2.28;;;;;;;14.02;63.67;102238.34;5213254;28;20033;-66
2022/06/14 07:35:10;;;;;;;6.55;2.67;;;;;;;14.17;68.22;102247.16;5212327;28;20049;-66
2022/06/14 07:37:49;;;;;;;4.25;1.73;;;;;;;14.28;65.97;102249.06;5208096;28;20026;-66
2022/06/14 07:40:24;;;;;;;6.25;1.95;;;;;;;14.34;68.20;102247.78;5207839;28;20038;-66
2022/06/14 07:43:16;;;;;;;4.53;1.20;;;;;;;14.40;62.26;102250.03;5212701;28;20029;-66
2022/06/14 07:45:49;;;;;;;6.35;1.38;;;;;;;14.57;61.19;102243.50;5209553;28;20030;-66
2022/06/14 07:48:31;;;;;;;6.15;2.70;;;;;;;14.73;63.20;102238.78;5212723;28;20751;-66
2022/06/14 07:51:06;;;;;;;5.00;2.22;;;;;;;14.67;63.28;102242.75;5209690;28;20025;-66
2022/06/14 07:53:48;;;;;;;5.50;1.83;;;;;;;14.73;64.50;102238.78;5211018;28;20037;-66
2022/06/14 07:56:29;;;;;;;8.23;2.50;;;;;;;14.85;64.30;102240.56;5210374;28;20034;-66
2022/06/14 07:59:07;;;;;;;7.90;2.67;;;;;;;14.83;64.06;102238.97;5212251;28;20056;-66
2022/06/14 08:02:01;;;;;;;5.85;2.00;;;;;;;14.90;63.85;102234.88;5212738;28;20029;-66
2022/06/14 08:04:44;;;;;;;6.97;2.20;;;;;;;15.11;64.36;102240.50;5212756;28;20046;-66
2022/06/14 08:07:18;;;;;;;5.38;1.80;;;;;;;15.22;62.94;102228.94;5211768;28;20292;-66
2022/06/14 08:10:06;;;;;;;;;;;;;;;15.27;65.40;102230.31;5211864;28;20041;-66
2022/06/14 08:12:43;;;;;;;6.22;2.20;;;;;;;15.54;61.10;102231.91;5211408;28;19929;-66
2022/06/14 08:15:25;;;;;;;8.25;2.13;;;;;;;15.46;62.33;102226.28;5216990;28;20040;-66
2022/06/14 08:18:24;;;;;;;7.07;2.38;;;;;;;15.34;61.13;102222.66;5211546;28;20104;-66
2022/06/14 08:21:07;;;;;;;5.78;2.00;;;;;;;15.62;60.71;102229.50;5212362;28;20034;-66
2022/06/14 08:23:52;;;;;;;6.65;1.98;;;;;;;15.61;60.60;102224.22;5209394;28;20034;-66
2022/06/14 08:26:42;;;;;;;7.20;2.00;;;;;;;15.63;60.77;102225.00;5211026;28;20541;-66
2022/06/14 08:29:27;;;;;;;6.57;2.42;;;;;;;15.60;61.83;102217.16;5216803;28;20044;-66
2022/06/14 08:32:07;;;;;;;6.78;2.00;;;;;;;15.80;61.84;102221.03;5211979;28;20393;-66
2022/06/14 08:34:58;;;;;;;7.72;2.10;;;;;;;15.99;60.62;102217.78;5210083;28;20385;-66
2022/06/14 08:37:32;;;;;;;7.53;2.03;;;;;;;16.00;57.47;102214.97;5209429;28;20424;-66
2022/06/14 08:40:28;;;;;;;4.82;1.58;;;;;;;16.13;60.48;102212.19;5211090;28;20444;-66
2022/06/14 08:43:11;;;;;;;5.20;1.50;;;;;;;16.07;59.97;102213.53;5207893;28;20435;-66
2022/06/14 08:45:59;;;;;;;4.90;1.50;;;;;;;15.94;57.05;102215.44;5215342;28;20025;-66
2022/06/14 08:48:40;;;;;;;6.95;1.63;;;;;;;15.94;59.69;102211.91;5206218;28;20093;-66
2022/06/14 08:51:19;;;;;;;5.47;1.73;;;;;;;16.00;58.58;102211.44;5210053;28;20040;-66
2022/06/14 08:53:53;;;;;;;6.13;1.92;;;;;;;16.20;59.72;102210.72;5215263;28;20041;-66
2022/06/14 08:57:01;;;;;;;4.07;1.83;;;;;;;16.39;60.89;102215.50;5217330;28;20033;-66
2022/06/14 08:59:54;;;;;;;6.82;2.35;;;;;;;16.41;61.86;102215.38;5208619;28;20023;-66
2022/06/14 09:02:41;;;;;;;5.47;2.63;;;;;;;16.41;57.92;102215.38;5208300;28;20046;-66
2022/06/14 09:05:34;;;;;;;7.25;2.42;;;;;;;16.36;60.21;102212.22;5213202;28;20045;-66
2022/06/14 09:08:34;;;;;;;6.15;2.72;;;;;;;16.44;59.39;102212.44;5209625;28;20111;-66
2022/06/14 09:11:08;;;;;;;7.35;2.28;;;;;;;16.57;57.67;102212.34;5205168;28;20061;-66
2022/06/14 09:13:39;;;;;;;6.97;2.85;;;;;;;16.58;56.65;102212.19;5209514;28;20456;-66
2022/06/14 09:16:29;;;;;;;5.97;2.10;;;;;;;16.78;58.87;102207.03;5212768;28;20064;-66
2022/06/14 09:19:21;;;;;;;4.93;1.88;;;;;;;16.90;56.76;102210.63;5214828;28;20042;-66
2022/06/14 09:22:14;;;;;;;6.03;2.20;;;;;;;17.01;57.69;102208.75;5215020;28;20040;-66
2022/06/14 09:24:52;;;;;;;6.35;1.80;;;;;;;17.24;57.37;102200.59;5213679;28;20036;-66
2022/06/14 09:27:42;;;;;;;9.05;2.20;;;;;;;17.11;58.35;102199.91;5209718;28;20021;-66
2022/06/14 09:30:20;;;;;;;6.90;2.40;;;;;;;17.13;56.36;102214.13;5205012;28;20512;-66
2022/06/14 09:33:09;;;;;;;6.65;2.20;;;;;;;17.13;57.91;102203.34;5205402;28;20037;-66
2022/06/14 09:35:41;;;;;;;5.05;2.60;;;;;;;17.01;55.76;102200.66;5212750;28;20420;-66
2022/06/14 09:38:15;;;;;;;6.25;2.30;;;;;;;17.11;57.04;102199.91;5209235;28;20022;-64
2022/06/14 09:41:07;;;;;;;8.00;2.70;;;;;;;17.09;57.22;102201.88;5209475;28;20042;-66
2022/06/14 09:44:24;;;;;;;6.95;2.50;;;;;;;17.27;57.40;102191.38;5206163;28;20065;-66
2022/06/14 09:47:33;;;;;;;6.22;1.92;;;;;;;17.45;55.73;102192.56;5199644;28;20037;-66
2022/06/14 09:50:45;;;;;;;6.75;2.70;;;;;;;17.59;57.91;102189.53;5201023;28;20038;-67
2022/06/14 09:53:41;;;;;;;6.03;2.50;;;;;;;17.56;57.02;102180.81;5203933;28;20042;-66
2022/06/14 09:56:25;;;;;;;6.35;2.42;;;;;;;17.36;56.90;102179.81;5203678;28;20038;-65
2022/06/14 09:59:35;;;;;;;7.18;2.63;;;;;;;17.48;57.31;102168.00;5205021;28;20029;-66
2022/06/14 10:02:07;;;;;;;6.65;2.08;;;;;;;17.46;57.19;102180.75;5203806;28;20045;-66
2022/06/14 10:04:40;;;;;;;6.43;2.17;;;;;;;17.68;57.57;102166.31;5209002;28;20032;-66
2022/06/14 10:07:25;;;;;;;5.78;2.15;;;;;;;17.76;56.98;102171.03;5208631;28;20096;-66
2022/06/14 10:10:23;;;;;;;8.02;2.90;;;;;;;17.86;58.63;102173.84;5208643;28;20060;-66
2022/06/14 10:13:06;;;;;;;7.03;2.30;;;;;;;18.00;57.77;102170.78;5204432;28;20034;-66
2022/06/14 10:15:56;;;;;;;7.97;2.75;;;;;;;17.97;57.80;102165.66;5205514;28;20061;-66
2022/06/14 10:18:49;;;;;;;6.30;2.53;;;;;;;18.17;57.11;102169.31;5206476;28;20625;-66
2022/06/14 10:21:31;;;;;;;5.82;2.65;;;;;;;18.34;59.74;102160.56;5206355;28;20116;-66
2022/06/14 10:24:09;;;;;;;8.70;2.80;;;;;;;18.12;55.65;102164.31;5206577;28;20030;-66
2022/06/14 10:30:08;;;;;;;9.07;2.63;;;;;;;18.45;55.54;102153.34;5212585;28;20042;-66
2022/06/14 10:33:03;;;;;;;7.10;2.58;;;;;;;18.28;52.67;102138.66;5207050;28;20646;-66
2022/06/14 10:36:14;;;;;;;6.82;2.78;;;;;;;18.35;53.55;102139.78;5204621;28;20037;-66
2022/06/14 10:39:19;;;;;;;7.18;2.33;;;;;;;18.55;53.95;102136.16;5205204;28;20038;-66
2022/06/14 10:42:25;;;;;;;;;;;;;;;18.60;56.35;102131.22;5205490;28;20472;-66
2022/06/14 10:45:14;;;;;;;8.27;3.03;;;;;;;18.65;54.52;102138.91;5198462;28;19913;-66
2022/06/14 10:48:07;;;;;;;8.38;3.42;;;;;;;18.56;52.90;102128.91;5199440;28;20029;-66
2022/06/14 10:50:47;;;;;;;8.07;3.03;;;;;;;18.55;51.84;102122.66;5210826;28;20377;-66
2022/06/14 10:53:56;;;;;;;7.03;3.00;;;;;;;18.70;53.26;102128.53;5208285;28;20089;-66
2022/06/14 10:56:49;;;;;;;7.03;2.78;;;;;;;18.73;55.41;102124.69;5207989;28;20041;-66
2022/06/14 10:59:23;;;;;;;5.55;2.70;;;;;;;18.91;52.36;102112.22;5204181;28;20112;-66
2022/06/14 11:02:30;;;;;;;9.90;2.60;;;;;;;19.03;54.70;102109.38;5206162;28;20026;-66
2022/06/14 11:05:32;;;;;;;8.75;2.90;;;;;;;18.96;53.11;102109.09;5219928;28;20042;-66
2022/06/14 11:08:34;;;;;;;7.60;2.67;;;;;;;19.16;53.90;102099.13;5207688;28;20026;-66
2022/06/14 11:11:36;;;;;;;8.02;2.90;;;;;;;19.15;52.29;102106.38;5208614;28;20044;-66
2022/06/14 11:14:08;;;;;;;7.50;2.60;;;;;;;19.08;51.91;102101.69;5208814;28;20771;-66
2022/06/14 11:16:53;;;;;;;6.72;2.63;;;;;;;19.21;51.80;102099.53;5205405;28;20029;-66
2022/06/14 11:19:45;;;;;;;8.57;2.33;;;;;;;19.25;54.62;102095.53;5206637;28;20440;-66
2022/06/14 11:22:49;;;;;;;6.05;2.63;;;;;;;19.31;52.06;102099.53;5213201;28;20026;-66
2022/06/14 11:25:41;;;;;;;7.00;2.58;;;;;;;19.41;51.51;102097.69;5208847;28;20030;-66
2022/06/14 11:28:41;;;;;;;9.23;2.50;;;;;;;19.28;49.37;102092.56;5208219;28;20488;-66
2022/06/14 11:31:21;;;;;;;8.57;2.53;;;;;;;19.38;50.07;102087.13;5207877;28;20049;-66
2022/06/14 11:34:01;;;;;;;5.93;2.10;;;;;;;19.42;51.05;102087.69;5208278;28;20041;-66
2022/06/14 11:36:35;;;;;;;4.82;2.20;;;;;;;19.36;47.18;102083.72;5215943;28;20030;-66
2022/06/14 11:39:21;;;;;;;6.38;2.63;;;;;;;19.50;48.37;102082.41;5210928;28;20038;-66
2022/06/14 11:41:53;;;;;;;7.22;2.13;;;;;;;19.41;49.35;102076.03;5209707;28;20439;-66
2022/06/14 11:44:57;;;;;;;4.80;2.15;;;;;;;19.51;50.78;102065.19;5202416;28;20072;-66
2022/06/14 11:47:43;;;;;;;5.75;2.10;;;;;;;19.55;50.18;102059.31;5186628;28;20061;-66
2022/06/14 11:50:32;;;;;;;5.30;1.98;;;;;;;19.60;51.42;102072.44;5204153;28;20439;-66
2022/06/14 11:53:19;;;;;;;4.95;2.30;;;;;;;19.66;48.50;102065.56;5218537;28;20030;-66
2022/06/14 11:56:02;;;;;;;4.78;2.30;;;;;;;19.69;49.03;102062.56;5201429;28;20038;-66
2022/06/14 11:59:14;;;;;;;5.47;2.80;;;;;;;19.73;49.84;102058.56;5206920;28;20038;-67
2022/06/14 12:02:14;;;;;;;6.38;2.00;;;;;;;19.76;48.79;102067.25;5203174;28;20381;-66
2022/06/14 12:05:02;;;;;;;7.30;2.40;;;;;;;19.75;50.07;102059.28;5201485;28;20036;-66
2022/06/14 12:07:40;;;;;;;8.75;2.28;;;;;;;19.87;48.55;102063.53;5208874;28;20018;-67
2022/06/14 12:10:36;;;;;;;8.00;2.10;;;;;;;19.81;50.44;102060.53;5211959;28;20626;-66
2022/06/14 12:13:20;;;;;;;6.68;2.60;;;;;;;19.82;48.83;102063.09;5211496;28;20089;-66
2022/06/14 12:16:10;;;;;;;;;;;;;;;19.85;49.47;102061.94;5210322;28;20188;-67
2022/06/14 12:19:13;;;;;;;5.38;1.83;;;;;;;19.95;50.17;102057.38;5208995;28;20016;-66
2022/06/14 12:21:58;;;;;;;6.32;2.88;;;;;;;19.96;47.84;102056.34;5210779;28;20033;-66
2022/06/14 12:27:23;;;;;;;8.23;2.97;;;;;;;20.15;48.40;102048.16;5209030;28;20112;-66
2022/06/14 12:29:58;;;;;;;6.63;2.90;;;;;;;20.10;48.56;102053.16;5214063;28;20022;-66
2022/06/14 12:32:38;;;;;;;6.18;2.60;;;;;;;20.20;49.66;102046.84;5204050;28;20029;-66
2022/06/14 12:35:17;;;;;;;5.20;3.00;;;;;;;20.16;46.83;102047.13;5201767;28;20131;-66
2022/06/14 12:38:00;;;;;;;7.03;3.00;;;;;;;20.33;45.98;102048.16;5201182;28;20026;-66
2022/06/14 12:40:50;;;;;;;6.93;2.88;;;;;;;20.36;46.04;102047.00;5212844;28;20040;-66
2022/06/14 12:43:26;;;;;;;6.28;2.88;;;;;;;20.31;43.40;102036.63;5211733;28;20033;-66
2022/06/14 12:46:09;;;;;;;6.40;2.60;;;;;;;20.33;46.10;102031.06;5207218;28;20034;-66
2022/06/14 12:48:58;;;;;;;5.80;2.47;;;;;;;20.37;46.04;102030.59;5207135;28;20536;-66